»·PEaware :: N761RM KSBD-KEMT

N761RM :: KSBD-KEMT

FLIGHT INFORMATION

Flight Status: Arrived
Operator: Privately registered:
United States
More flights under this callsign
Pilot: Ron M. (13553)
Aircraft: MOONEY M-20 201 202 205 220 ATS MSE
(M20P)
More flights by this aircraft type
Origin: KSBD San Bernardino Intl
United States
Destination: KEMT El Monte
United States
More flights between these airports :: More routes between these airports
Route:
File this flight plan on PilotEdge
Remarks:
Altitude:
(Current/Filed)
0ft
Speed:
(Current/Filed)
0kts
Departed: 23-Sep-18 06:51 PM
Arrived: 23-Sep-18 07:15 PM
Distance/Time
Traveled:
40nm/0:24
Distance/Time
To Go:
Arrived

Flight Plot

Page will automatically refresh every two minutes.


Map Options




Map Legend


Flown Route
Filed Route
Departure Airport
Arrival Airport
Navaid (VOR, NDB)
Fix

Horizontal Profiles

Position Reports

Time Latitude Longitude Heading Altitude Ground
Speed
23-Sep-18 18:30 34.102424 -117.224717 93 1131ft 0kts
23-Sep-18 18:31 34.102424 -117.224717 93 1131ft 0kts
23-Sep-18 18:32 34.102424 -117.224717 93 1131ft 0kts
23-Sep-18 18:33 34.102424 -117.224717 93 1131ft 0kts
23-Sep-18 18:34 34.102424 -117.224717 93 1131ft 0kts
23-Sep-18 18:35 34.102149 -117.224529 164 1131ft 8kts
23-Sep-18 18:36 34.100471 -117.225590 239 1131ft 3kts
23-Sep-18 18:37 34.100085 -117.224893 69 1131ft 13kts
23-Sep-18 18:38 34.101387 -117.220651 73 1131ft 12kts
23-Sep-18 18:39 34.100772 -117.219737 159 1131ft 0kts
23-Sep-18 18:40 34.100772 -117.219737 159 1131ft 0kts
23-Sep-18 18:41 34.100772 -117.219737 159 1131ft 0kts
23-Sep-18 18:42 34.100772 -117.219737 159 1131ft 0kts
23-Sep-18 18:43 34.100772 -117.219737 159 1131ft 0kts
23-Sep-18 18:44 34.100772 -117.219737 159 1131ft 0kts
23-Sep-18 18:45 34.100772 -117.219737 159 1131ft 0kts
23-Sep-18 18:46 34.100772 -117.219737 159 1131ft 0kts
23-Sep-18 18:47 34.100772 -117.219737 159 1131ft 0kts
23-Sep-18 18:48 34.100772 -117.219737 159 1131ft 0kts
23-Sep-18 18:49 34.100772 -117.219737 159 1131ft 0kts
23-Sep-18 18:50 34.100772 -117.219737 159 1131ft 0kts
23-Sep-18 18:51 34.099676 -117.219851 224 1131ft 3kts
23-Sep-18 18:52 34.099643 -117.220112 252 1131ft 0kts
23-Sep-18 18:53 34.098120 -117.225297 251 1131ft 76kts
23-Sep-18 18:54 34.090950 -117.262146 278 1735ft 132kts
23-Sep-18 18:55 34.094322 -117.309036 270 2497ft 160kts
23-Sep-18 18:56 34.094019 -117.368722 269 2500ft 188kts
23-Sep-18 18:57 34.093405 -117.432040 269 2499ft 192kts
23-Sep-18 18:58 34.092748 -117.495811 269 2587ft 189kts
23-Sep-18 18:59 34.092084 -117.557772 269 2604ft 184kts
23-Sep-18 19:00 34.091425 -117.615933 269 3120ft 159kts
23-Sep-18 19:01 34.090920 -117.657280 269 4620ft 104kts
23-Sep-18 19:02 34.090597 -117.682336 269 5130ft 134kts
23-Sep-18 19:03 34.090029 -117.733086 268 4500ft 156kts
23-Sep-18 19:04 34.089384 -117.783620 268 4598ft 150kts
23-Sep-18 19:05 34.088728 -117.833769 268 4600ft 154kts
23-Sep-18 19:06 34.088033 -117.885257 268 4600ft 155kts
23-Sep-18 19:07 34.090409 -117.915539 156 4461ft 145kts
23-Sep-18 19:08 34.083476 -117.912513 320 4565ft 134kts
23-Sep-18 19:09 34.110386 -117.941207 323 4407ft 115kts
23-Sep-18 19:10 34.117375 -117.971189 241 2792ft 119kts
23-Sep-18 19:11 34.113528 -118.006501 225 682ft 100kts
23-Sep-18 19:12 34.092024 -118.016370 189 446ft 100kts
23-Sep-18 19:13 34.070738 -118.019266 68 587ft 94kts
23-Sep-18 19:14 34.087468 -118.000233 87 719ft 89kts
23-Sep-18 19:15 34.103472 -118.001185 302 407ft 83kts
23-Sep-18 19:16 34.095265 -118.029586 207 424ft 95kts
23-Sep-18 19:17 34.084830 -118.035373 225 292ft 6kts
23-Sep-18 19:18 34.083058 -118.036032 91 292ft 0kts
23-Sep-18 19:19 34.082776 -118.035226 193 292ft 4kts
23-Sep-18 19:20 34.082646 -118.035300 205 292ft 0kts

Navigation Log

Ident Type
Flight plan parsing failed, navigation log unavailable